地図

経路データ

SID SEASON NUMBER BASIN SUBBASIN NAME ISO_TIME NATURE LAT LON WMO_WIND WMO_PRES WMO_AGENCY TRACK_TYPE DIST2LAND LANDFALL IFLAG USA_AGENCY USA_ATCF_ID USA_LAT USA_LON USA_RECORD USA_STATUS USA_WIND USA_PRES USA_SSHS USA_R34_NE USA_R34_SE USA_R34_SW USA_R34_NW USA_R50_NE USA_R50_SE USA_R50_SW USA_R50_NW USA_R64_NE USA_R64_SE USA_R64_SW USA_R64_NW USA_POCI USA_ROCI USA_RMW USA_EYE TOKYO_LAT TOKYO_LON TOKYO_GRADE TOKYO_WIND TOKYO_PRES TOKYO_R50_DIR TOKYO_R50_LONG TOKYO_R50_SHORT TOKYO_R30_DIR TOKYO_R30_LONG TOKYO_R30_SHORT TOKYO_LAND CMA_LAT CMA_LON CMA_CAT CMA_WIND CMA_PRES HKO_LAT HKO_LON HKO_CAT HKO_WIND HKO_PRES NEWDELHI_LAT NEWDELHI_LON NEWDELHI_GRADE NEWDELHI_WIND NEWDELHI_PRES NEWDELHI_CI NEWDELHI_DP NEWDELHI_POCI REUNION_LAT REUNION_LON REUNION_TYPE REUNION_WIND REUNION_PRES REUNION_TNUM REUNION_CI REUNION_RMW REUNION_R34_NE REUNION_R34_SE REUNION_R34_SW REUNION_R34_NW REUNION_R50_NE REUNION_R50_SE REUNION_R50_SW REUNION_R50_NW REUNION_R64_NE REUNION_R64_SE REUNION_R64_SW REUNION_R64_NW BOM_LAT BOM_LON BOM_TYPE BOM_WIND BOM_PRES BOM_TNUM BOM_CI BOM_RMW BOM_R34_NE BOM_R34_SE BOM_R34_SW BOM_R34_NW BOM_R50_NE BOM_R50_SE BOM_R50_SW BOM_R50_NW BOM_R64_NE BOM_R64_SE BOM_R64_SW BOM_R64_NW BOM_ROCI BOM_POCI BOM_EYE BOM_POS_METHOD BOM_PRES_METHOD NADI_LAT NADI_LON NADI_CAT NADI_WIND NADI_PRES WELLINGTON_LAT WELLINGTON_LON WELLINGTON_WIND WELLINGTON_PRES DS824_LAT DS824_LON DS824_STAGE DS824_WIND DS824_PRES TD9636_LAT TD9636_LON TD9636_STAGE TD9636_WIND TD9636_PRES TD9635_LAT TD9635_LON TD9635_WIND TD9635_PRES TD9635_ROCI NEUMANN_LAT NEUMANN_LON NEUMANN_CLASS NEUMANN_WIND NEUMANN_PRES MLC_LAT MLC_LON MLC_CLASS MLC_WIND MLC_PRES USA_GUST BOM_GUST BOM_GUST_PER REUNION_GUST REUNION_GUST_PER USA_SEAHGT USA_SEARAD_NE USA_SEARAD_SE USA_SEARAD_SW USA_SEARAD_NW STORM_SPEED STORM_DIR
1885040S16075 1885 8 SI MM NOT_NAMED 1885-02-09 00:00:00 TS -16.0000 75.4000 main 1919 1875 _________O____ -1 -16.0000 75.4000 TC 8 255
1885040S16075 1885 8 SI MM NOT_NAMED 1885-02-09 03:00:00 TS -16.1026 75.0026 main 1875 1831 _________P____ -1 -16.1026 75.0026 TC 8 255
1885040S16075 1885 8 SI MM NOT_NAMED 1885-02-09 06:00:00 TS -16.2000 74.6000 main 1831 1787 _________O____ -1 -16.2000 74.6000 TC 8 256
1885040S16075 1885 8 SI MM NOT_NAMED 1885-02-09 09:00:00 TS -16.2925 74.1924 main 1787 1743 _________P____ -1 -16.2925 74.1924 TC 8 255
1885040S16075 1885 8 SI MM NOT_NAMED 1885-02-09 12:00:00 TS -16.4000 73.8000 main 1743 1709 _________O____ -1 -16.4000 73.8000 TC 8 251
1885040S16075 1885 8 SI MM NOT_NAMED 1885-02-09 15:00:00 TS -16.5424 73.4500 main 1699 1662 _________P____ -1 -16.5424 73.4500 TC 7 246
1885040S16075 1885 8 SI MM NOT_NAMED 1885-02-09 18:00:00 TS -16.7000 73.1000 main 1662 1618 _________O____ -1 -16.7000 73.1000 TC 8 246
1885040S16075 1885 8 SI MM NOT_NAMED 1885-02-09 21:00:00 TS -16.8575 72.7075 main 1615 1571 _________P____ -1 -16.8575 72.7075 TC 8 249
1885040S16075 1885 8 SI MM NOT_NAMED 1885-02-10 00:00:00 TS -17.0000 72.3000 main 1571 1527 _________O____ -1 -17.0000 72.3000 TC 8 253
1885040S16075 1885 8 SI MM NOT_NAMED 1885-02-10 03:00:00 TS -17.1000 71.8924 main 1527 1483 _________P____ -1 -17.1000 71.8924 TC 8 255
1885040S16075 1885 8 SI MM NOT_NAMED 1885-02-10 06:00:00 TS -17.2000 71.5000 main 1483 1449 _________O____ -1 -17.2000 71.5000 TC 7 251
1885040S16075 1885 8 SI MM NOT_NAMED 1885-02-10 09:00:00 TS -17.3423 71.1649 main 1449 1402 _________P____ -1 -17.3423 71.1649 TC 7 246
1885040S16075 1885 8 SI MM NOT_NAMED 1885-02-10 12:00:00 TS -17.5000 70.8000 main 1402 1348 _________O____ -1 -17.5000 70.8000 TC 9 250
1885040S16075 1885 8 SI MM NOT_NAMED 1885-02-10 15:00:00 TS -17.6426 70.3149 main 1348 1291 _________P____ -1 -17.6426 70.3149 TC 10 253
1885040S16075 1885 8 SI MM NOT_NAMED 1885-02-10 18:00:00 TS -17.8000 69.8000 main 1291 1245 _________O____ -1 -17.8000 69.8000 TC 10 249
1885040S16075 1885 8 SI MM NOT_NAMED 1885-02-10 21:00:00 TS -17.9999 69.3350 main 1234 1188 _________P____ -1 -17.9999 69.3350 TC 9 245
1885040S16075 1885 8 SI MM NOT_NAMED 1885-02-11 00:00:00 TS -18.2000 68.9000 main 1188 1144 _________O____ -1 -18.2000 68.9000 TC 9 246
1885040S16075 1885 8 SI MM NOT_NAMED 1885-02-11 03:00:00 TS -18.3574 68.4849 main 1142 1098 _________P____ -1 -18.3574 68.4849 TC 8 248
1885040S16075 1885 8 SI MM NOT_NAMED 1885-02-11 06:00:00 TS -18.5000 68.1000 main 1098 1065 _________O____ -1 -18.5000 68.1000 TC 8 248
1885040S16075 1885 8 SI MM NOT_NAMED 1885-02-11 09:00:00 TS -18.6499 67.7349 main 1055 1019 _________P____ -1 -18.6499 67.7349 TC 7 246
1885040S16075 1885 8 SI MM NOT_NAMED 1885-02-11 12:00:00 TS -18.8000 67.4000 main 1019 986 _________O____ -1 -18.8000 67.4000 TC 7 243
1885040S16075 1885 8 SI MM NOT_NAMED 1885-02-11 15:00:00 TS -18.9499 67.0999 main 986 951 _________P____ -1 -18.9499 67.0999 TC 6 242
1885040S16075 1885 8 SI MM NOT_NAMED 1885-02-11 18:00:00 TS -19.1000 66.8000 main 951 918 _________O____ -1 -19.1000 66.8000 TC 7 243
1885040S16075 1885 8 SI MM NOT_NAMED 1885-02-11 21:00:00 TS -19.2575 66.4500 main 916 873 _________P____ -1 -19.2575 66.4500 TC 7 246
1885040S16075 1885 8 SI MM NOT_NAMED 1885-02-12 00:00:00 TS -19.4000 66.1000 main 873 841 _________O____ -1 -19.4000 66.1000 TC 7 248
1885040S16075 1885 8 SI MM NOT_NAMED 1885-02-12 03:00:00 TS -19.5074 65.7849 main 841 808 _________P____ -1 -19.5074 65.7849 TC 6 251
1885040S16075 1885 8 SI MM NOT_NAMED 1885-02-12 06:00:00 TS -19.6000 65.5000 main 808 786 _________O____ -1 -19.6000 65.5000 TC 5 249
1885040S16075 1885 8 SI MM NOT_NAMED 1885-02-12 09:00:00 TS -19.6999 65.2499 main 776 754 _________P____ -1 -19.6999 65.2499 TC 5 247
1885040S16075 1885 8 SI MM NOT_NAMED 1885-02-12 12:00:00 TS -19.8000 65.0000 main 754 721 _________O____ -1 -19.8000 65.0000 TC 6 250
1885040S16075 1885 8 SI MM NOT_NAMED 1885-02-12 15:00:00 TS -19.8925 64.7000 main 721 689 _________P____ -1 -19.8925 64.7000 TC 6 250
1885040S16075 1885 8 SI MM NOT_NAMED 1885-02-12 18:00:00 TS -20.0000 64.4000 main 689 668 _________O____ -1 -20.0000 64.4000 TC 6 244
1885040S16075 1885 8 SI MM NOT_NAMED 1885-02-12 21:00:00 TS -20.1423 64.1649 main 668 636 _________P____ -1 -20.1423 64.1649 TC 6 237
1885040S16075 1885 8 SI MM NOT_NAMED 1885-02-13 00:00:00 TS -20.3000 63.9000 main 636 594 _________O____ -1 -20.3000 63.9000 TC 7 244
1885040S16075 1885 8 SI MM NOT_NAMED 1885-02-13 03:00:00 TS -20.4426 63.5149 main 594 553 _________P____ -1 -20.4426 63.5149 TC 8 248
1885040S16075 1885 8 SI MM NOT_NAMED 1885-02-13 06:00:00 TS -20.6000 63.1000 main 553 522 _________O____ -1 -20.6000 63.1000 TC 8 244
1885040S16075 1885 8 SI MM NOT_NAMED 1885-02-13 09:00:00 TS -20.7923 62.7499 main 513 484 _________P____ -1 -20.7923 62.7499 TC 8 239
1885040S16075 1885 8 SI MM NOT_NAMED 1885-02-13 12:00:00 TS -21.0000 62.4000 main 484 448 _________O____ -1 -21.0000 62.4000 TC 8 240
1885040S16075 1885 8 SI MM NOT_NAMED 1885-02-13 15:00:00 TS -21.2000 62.0074 main 448 413 _________P____ -1 -21.2000 62.0074 TC 8 242
1885040S16075 1885 8 SI MM NOT_NAMED 1885-02-13 18:00:00 TS -21.4000 61.6000 main 413 381 _________O____ -1 -21.4000 61.6000 TC 8 242
1885040S16075 1885 8 SI MM NOT_NAMED 1885-02-13 21:00:00 TS -21.5998 61.2074 main 381 352 _________P____ -1 -21.5998 61.2074 TC 8 242
1885040S16075 1885 8 SI MM NOT_NAMED 1885-02-14 00:00:00 TS -21.8000 60.8000 main 352 326 _________O____ -1 -21.8000 60.8000 TC 9 243
1885040S16075 1885 8 SI MM NOT_NAMED 1885-02-14 03:00:00 TS -22.0000 60.3499 main 317 296 _________P____ -1 -22.0000 60.3499 TC 9 244
1885040S16075 1885 8 SI MM NOT_NAMED 1885-02-14 06:00:00 TS -22.2000 59.9000 main 296 281 _________O____ -1 -22.2000 59.9000 TC 9 243
1885040S16075 1885 8 SI MM NOT_NAMED 1885-02-14 09:00:00 TS -22.3998 59.4924 main 282 272 _________P____ -1 -22.3998 59.4924 TC 8 242
1885040S16075 1885 8 SI MM NOT_NAMED 1885-02-14 12:00:00 TS -22.6000 59.1000 main 275 270 _________O____ -1 -22.6000 59.1000 TC 8 242
1885040S16075 1885 8 SI MM NOT_NAMED 1885-02-14 15:00:00 TS -22.8000 58.6924 main 277 273 _________P____ -1 -22.8000 58.6924 TC 8 242
1885040S16075 1885 8 SI MM NOT_NAMED 1885-02-14 18:00:00 TS -23.0000 58.3000 main 286 284 _________O____ -1 -23.0000 58.3000 TC 8 240
1885040S16075 1885 8 SI MM NOT_NAMED 1885-02-14 21:00:00 TS -23.1998 57.9498 main 302 296 _________P____ -1 -23.1998 57.9498 TC 8 238
1885040S16075 1885 8 SI MM NOT_NAMED 1885-02-15 00:00:00 TS -23.4000 57.6000 main 298 290 _________O____ -1 -23.4000 57.6000 TC 8 240
1885040S16075 1885 8 SI MM NOT_NAMED 1885-02-15 03:00:00 TS -23.6000 57.2074 main 294 289 _________P____ -1 -23.6000 57.2074 TC 8 241
1885040S16075 1885 8 SI MM NOT_NAMED 1885-02-15 06:00:00 TS -23.8000 56.8000 main 295 291 _________O____ -1 -23.8000 56.8000 TC 8 242
1885040S16075 1885 8 SI MM NOT_NAMED 1885-02-15 09:00:00 TS -23.9999 56.3999 main 302 299 _________P____ -1 -23.9999 56.3999 TC 8 241
1885040S16075 1885 8 SI MM NOT_NAMED 1885-02-15 12:00:00 TS -24.2000 56.0000 main 315 314 _________O____ -1 -24.2000 56.0000 TC 8 242
1885040S16075 1885 8 SI MM NOT_NAMED 1885-02-15 15:00:00 TS -24.3925 55.5923 main 335 335 _________P____ -1 -24.3925 55.5923 TC 8 241
1885040S16075 1885 8 SI MM NOT_NAMED 1885-02-15 18:00:00 TS -24.6000 55.2000 main 360 360 _________O____ -1 -24.6000 55.2000 TC 8 237
1885040S16075 1885 8 SI MM NOT_NAMED 1885-02-15 21:00:00 TS -24.8401 54.8403 main 388 388 _________P____ -1 -24.8401 54.8403 TC 8 232
1885040S16075 1885 8 SI MM NOT_NAMED 1885-02-16 00:00:00 TS -25.1000 54.5000 main 428 _________O____ -1 -25.1000 54.5000 TC 8 230

IBTrACS Databaseについて

本データベースは、米国NOAAが公開する1842年以降の世界の熱帯低気圧のベストトラックデータアーカイブInternational Best Track Archive for Climate Stewardship (IBTrACS)を、ウェブで閲覧しやすい形式に変換したものです。

最終更新日:2021-12-03